createdAt,value
2022-08-26T00:02:09.053Z,8.40
2022-08-26T00:07:11.024Z,6.93
2022-08-26T00:12:13.108Z,7.72
2022-08-26T00:17:14.922Z,6.28
2022-08-26T00:22:21.570Z,5.82
2022-08-26T00:27:23.388Z,4.85
2022-08-26T00:32:25.343Z,4.55
2022-08-26T00:37:27.838Z,4.88
2022-08-26T00:42:29.759Z,4.53
2022-08-26T00:47:40.135Z,4.15
2022-08-26T00:52:42.849Z,5.32
2022-08-26T00:57:48.367Z,3.92
2022-08-26T01:02:50.894Z,4.88
2022-08-26T01:07:52.790Z,5.35
2022-08-26T01:13:03.007Z,5.13
2022-08-26T01:18:06.202Z,4.43
2022-08-26T01:23:10.794Z,4.53
2022-08-26T01:28:18.722Z,4.55
2022-08-26T01:33:25.491Z,4.82
2022-08-26T01:38:28.020Z,4.88
2022-08-26T01:43:34.165Z,4.90
2022-08-26T01:48:37.832Z,5.40
2022-08-26T01:53:41.793Z,5.13
2022-08-26T01:58:53.563Z,4.30
2022-08-26T02:04:49.915Z,4.82
2022-08-26T02:09:51.723Z,4.03
2022-08-26T02:14:56.404Z,3.83
2022-08-26T02:19:58.249Z,3.40
2022-08-26T02:25:10.832Z,3.30
2022-08-26T02:30:21.858Z,4.40
2022-08-26T02:35:24.051Z,4.05
2022-08-26T02:40:30.632Z,3.63
2022-08-26T02:45:33.440Z,3.00
2022-08-26T02:50:35.782Z,4.15
2022-08-26T02:55:37.757Z,3.22
2022-08-26T03:00:52.805Z,3.17
2022-08-26T03:05:55.085Z,2.65
2022-08-26T03:10:56.766Z,2.63
2022-08-26T03:16:01.198Z,3.38
2022-08-26T03:21:11.713Z,2.65
2022-08-26T03:26:15.162Z,2.08
2022-08-26T03:31:18.098Z,1.80
2022-08-26T03:36:19.930Z,2.00
2022-08-26T03:41:22.047Z,1.85
2022-08-26T03:46:24.094Z,1.60
2022-08-26T03:51:29.680Z,1.75
2022-08-26T03:56:33.477Z,2.20
2022-08-26T04:01:35.637Z,2.55
2022-08-26T04:06:42.997Z,1.95
2022-08-26T04:11:47.534Z,1.85
2022-08-26T04:16:55.334Z,2.30
2022-08-26T04:21:57.321Z,2.53
2022-08-26T04:26:59.146Z,1.75
2022-08-26T04:32:02.122Z,1.80
2022-08-26T04:37:05.774Z,2.15
2022-08-26T04:42:07.722Z,1.88
2022-08-26T04:47:10.525Z,1.60
2022-08-26T04:52:13.065Z,2.13
2022-08-26T04:57:14.846Z,3.20
2022-08-26T05:02:17.295Z,1.88
2022-08-26T05:07:19.060Z,1.77
2022-08-26T05:12:21.012Z,1.38
2022-08-26T05:17:22.856Z,1.67
2022-08-26T05:22:24.504Z,3.70
2022-08-26T05:27:26.938Z,1.63
2022-08-26T05:32:28.609Z,1.77
2022-08-26T05:37:30.869Z,1.70
2022-08-26T05:42:33.349Z,2.25
2022-08-26T05:47:35.542Z,1.88
2022-08-26T05:52:38.481Z,2.25
2022-08-26T05:57:40.565Z,3.20
2022-08-26T06:02:44.733Z,1.85
2022-08-26T06:08:08.914Z,4.00
2022-08-26T06:13:12.487Z,1.42
2022-08-26T06:18:16.092Z,3.55
2022-08-26T06:23:37.414Z,2.00
2022-08-26T06:28:45.533Z,2.65
2022-08-26T06:33:47.638Z,1.33
2022-08-26T06:38:50.712Z,1.85
2022-08-26T06:43:52.759Z,3.85
2022-08-26T06:48:55.140Z,2.22
2022-08-26T06:54:00.078Z,2.60
2022-08-26T06:59:01.893Z,2.53
2022-08-26T07:04:07.860Z,2.58
2022-08-26T07:09:12.565Z,2.15
2022-08-26T07:14:16.392Z,2.65
2022-08-26T07:19:31.240Z,2.40
2022-08-26T07:24:36.073Z,2.47
2022-08-26T07:29:39.541Z,2.28
2022-08-26T07:34:42.359Z,1.77
2022-08-26T07:39:45.182Z,1.63
2022-08-26T07:44:47.794Z,1.35
2022-08-26T07:49:52.821Z,1.33
2022-08-26T07:54:56.487Z,1.55
2022-08-26T07:59:59.137Z,1.95
2022-08-26T08:05:00.910Z,1.55
2022-08-26T08:10:09.664Z,2.25
2022-08-26T08:15:14.548Z,3.42
2022-08-26T08:20:17.040Z,2.85
2022-08-26T08:25:19.620Z,2.40
2022-08-26T08:30:22.850Z,1.55
2022-08-26T08:35:26.448Z,2.05
2022-08-26T08:40:29.211Z,2.50
2022-08-26T08:45:44.533Z,1.65
2022-08-26T08:51:20.947Z,1.60
2022-08-26T08:56:44.714Z,1.50
2022-08-26T09:01:58.574Z,1.58
2022-08-26T09:07:02.833Z,2.85
2022-08-26T09:12:09.977Z,2.05
2022-08-26T09:17:30.559Z,2.22
2022-08-26T09:22:36.067Z,3.33
2022-08-26T09:27:40.372Z,1.45
2022-08-26T09:32:42.866Z,3.10
2022-08-26T09:37:58.467Z,2.38
2022-08-26T09:43:22.858Z,1.70
2022-08-26T09:48:29.734Z,1.58
2022-08-26T09:53:36.563Z,1.20
2022-08-26T10:03:46.936Z,1.45
2022-08-26T10:08:55.279Z,2.47
2022-08-26T10:14:03.273Z,1.58
2022-08-26T10:19:25.296Z,1.67
2022-08-26T10:24:48.987Z,2.05
2022-08-26T10:29:57.032Z,1.80
2022-08-26T10:34:59.550Z,1.38
2022-08-26T10:40:27.466Z,1.70
2022-08-26T10:45:33.061Z,1.23
2022-08-26T10:50:39.123Z,2.30
2022-08-26T10:55:44.089Z,1.70
2022-08-26T11:01:11.490Z,1.70
2022-08-26T11:06:19.173Z,1.80
2022-08-26T11:11:50.391Z,1.38
2022-08-26T11:16:54.475Z,1.35
2022-08-26T11:22:18.685Z,1.50
2022-08-26T11:27:23.200Z,1.20
2022-08-26T11:32:48.805Z,1.25
2022-08-26T11:37:59.059Z,1.35
2022-08-26T11:43:19.434Z,1.25
2022-08-26T11:48:30.756Z,1.10
2022-08-26T11:53:38.365Z,1.00
2022-08-26T11:58:43.690Z,1.40
2022-08-26T12:03:49.977Z,1.05
2022-08-26T12:08:55.387Z,1.20
2022-08-26T12:14:03.763Z,1.30
2022-08-26T12:19:27.336Z,2.10
2022-08-26T12:24:30.046Z,1.65
2022-08-26T12:29:32.235Z,1.13
2022-08-26T12:34:34.316Z,1.38
2022-08-26T12:39:38.616Z,2.65
2022-08-26T12:44:53.871Z,1.52
2022-08-26T12:50:17.203Z,2.03
2022-08-26T12:55:23.759Z,0.98
2022-08-26T13:00:40.656Z,1.20
2022-08-26T13:05:42.707Z,0.90
2022-08-26T13:10:47.747Z,1.40
2022-08-26T13:15:50.080Z,1.30
2022-08-26T13:20:52.650Z,1.13
2022-08-26T13:25:54.571Z,2.10
2022-08-26T13:30:56.348Z,1.05
2022-08-26T13:35:59.420Z,0.70
2022-08-26T13:41:02.554Z,1.30
2022-08-26T13:46:04.660Z,1.00
2022-08-26T13:51:08.214Z,1.38
2022-08-26T13:56:11.234Z,0.90
2022-08-26T14:01:14.326Z,1.10
2022-08-26T14:06:16.420Z,1.15
2022-08-26T14:11:18.405Z,1.00
2022-08-26T14:16:33.436Z,1.98
2022-08-26T14:21:37.292Z,0.88
2022-08-26T14:26:39.138Z,1.30
2022-08-26T14:31:41.069Z,1.00
2022-08-26T14:36:43.027Z,1.20
2022-08-26T14:41:54.405Z,1.33
2022-08-26T14:46:57.566Z,1.00
2022-08-26T14:51:59.663Z,1.77
2022-08-26T14:57:05.066Z,1.52
2022-08-26T15:02:11.535Z,1.80
2022-08-26T15:07:20.021Z,3.42
2022-08-26T15:12:22.047Z,1.90
2022-08-26T15:17:23.992Z,1.50
2022-08-26T15:22:26.580Z,1.60
2022-08-26T15:27:31.635Z,1.30
2022-08-26T15:32:34.499Z,1.60
2022-08-26T15:37:36.563Z,1.20
2022-08-26T15:42:38.441Z,1.23
2022-08-26T15:48:11.148Z,1.60
2022-08-26T15:53:02.885Z,1.33
2022-08-26T15:58:04.641Z,1.75
2022-08-26T16:03:07.723Z,1.15
2022-08-26T16:08:10.463Z,2.05
2022-08-26T16:13:14.748Z,1.77
2022-08-26T16:18:17.015Z,1.40
2022-08-26T16:23:19.179Z,1.58
2022-08-26T16:28:25.026Z,1.30
2022-08-26T16:33:29.088Z,1.33
2022-08-26T16:38:31.646Z,2.53
2022-08-26T16:43:33.858Z,1.30
2022-08-26T16:48:38.144Z,1.48
2022-08-26T16:53:39.989Z,1.30
2022-08-26T16:58:42.309Z,1.80
2022-08-26T17:03:44.276Z,1.30
2022-08-26T17:08:46.222Z,1.20
2022-08-26T17:13:47.941Z,1.05
2022-08-26T17:18:49.770Z,1.40
2022-08-26T17:23:51.860Z,1.58
2022-08-26T17:28:54.108Z,2.47
2022-08-26T17:33:55.952Z,1.63
2022-08-26T17:38:58.519Z,2.78
2022-08-26T17:44:00.225Z,9.52
2022-08-26T17:49:02.295Z,4.57
2022-08-26T17:54:04.323Z,2.80
2022-08-26T17:59:06.127Z,3.88
2022-08-26T18:04:10.234Z,3.92
2022-08-26T18:09:12.277Z,3.33
2022-08-26T18:14:14.185Z,1.33
2022-08-26T18:19:16.091Z,2.15
2022-08-26T18:24:18.068Z,1.98
2022-08-26T18:29:21.584Z,2.17
2022-08-26T18:34:23.327Z,2.70
2022-08-26T18:39:33.552Z,1.42
2022-08-26T18:44:35.532Z,1.85
2022-08-26T18:49:37.971Z,1.40
2022-08-26T18:54:39.832Z,2.05
2022-08-26T18:59:41.766Z,3.55
2022-08-26T19:04:43.796Z,1.83
2022-08-26T19:09:45.596Z,3.30
2022-08-26T19:14:47.581Z,1.80
2022-08-26T19:19:49.772Z,1.40
2022-08-26T19:24:51.693Z,2.25
2022-08-26T19:29:53.644Z,1.55
2022-08-26T19:34:55.485Z,1.77
2022-08-26T19:39:57.381Z,1.27
2022-08-26T19:45:15.687Z,1.77
2022-08-26T19:55:30.465Z,3.55
2022-08-26T20:00:33.667Z,3.08
2022-08-26T20:05:35.678Z,3.10
2022-08-26T20:10:39.288Z,3.47
2022-08-26T20:15:43.250Z,3.80
2022-08-26T20:21:03.715Z,1.27
2022-08-26T20:26:06.624Z,2.78
2022-08-26T20:31:08.727Z,2.13
2022-08-26T20:36:12.899Z,2.22
2022-08-26T20:41:15.202Z,2.00
2022-08-26T20:46:19.587Z,1.90
2022-08-26T20:51:24.098Z,1.33
2022-08-26T20:56:26.147Z,2.22
2022-08-26T21:01:34.614Z,1.75
2022-08-26T21:06:38.339Z,1.70
2022-08-26T21:11:41.347Z,1.90
2022-08-26T21:16:43.516Z,2.30
2022-08-26T21:21:47.710Z,1.77
2022-08-26T21:26:49.637Z,1.67
2022-08-26T21:31:51.692Z,1.73
2022-08-26T21:36:53.564Z,1.13
2022-08-26T21:41:55.471Z,1.83
2022-08-26T21:46:57.409Z,2.17
2022-08-26T21:52:01.649Z,1.90
2022-08-26T21:57:05.872Z,1.75
2022-08-26T22:02:07.821Z,2.70
2022-08-26T22:07:09.938Z,2.53
2022-08-26T22:12:12.848Z,1.80
2022-08-26T22:17:14.989Z,1.92
2022-08-26T22:22:17.005Z,1.95
2022-08-26T22:27:18.930Z,1.90
2022-08-26T22:32:20.804Z,2.08
2022-08-26T22:37:22.609Z,2.00
2022-08-26T22:42:24.472Z,2.38
2022-08-26T22:47:26.891Z,1.95
2022-08-26T22:52:28.945Z,2.35
2022-08-26T22:57:30.861Z,2.00
2022-08-26T23:02:32.774Z,2.50
2022-08-26T23:07:35.295Z,2.53
2022-08-26T23:12:38.143Z,2.30
2022-08-26T23:17:40.151Z,1.95
2022-08-26T23:22:43.117Z,1.92
2022-08-26T23:27:45.405Z,1.88
2022-08-26T23:32:47.627Z,2.40
2022-08-26T23:37:52.525Z,2.03
2022-08-26T23:42:56.499Z,2.40
2022-08-26T23:47:59.095Z,3.60
2022-08-26T23:53:06.620Z,3.08
2022-08-26T23:58:08.514Z,3.88
